Doris, Washington
Current Conditions -  °F | °C
As of 7:56 PM on Wednesday 26 Nov 2014 (Local Time) from K1YT Reporting Station
Broken Clouds Broken Clouds  
Wind Chill: 41°   Ceiling: 23000
Heat Index: 41°   Visibility: 10mi
Dew Point: 38°   Wind: 2mph
Humidity: 90%   Direction: NA
Pressure: 29.99"   Gusts: NA
Location:  46.8679°N, 120.008°W
Report Text: K1YT 270356Z AUTO VRB02KT 10SM SCT070 BKN230 05/04 A2999 RMK AO2 SLPNO T00510036
Loading
Personal Weather Stations






























Interactive Weather Map New forecast layout! Learn more

10-Day Weather Forecast

Advertisements
Track Severe Weather on mobile